Time;durP1;ratioP1;P1;durP2;ratioP2;P2;SDS_P1;SDS_P2;PMS_P1;PMS_P2;Temp;Humidity;BMP_temperature;BMP_pressure;BME280_temperature;BME280_humidity;BME280_pressure;Samples;Min_cycle;Max_cycle;Signal;HPM_P1;HPM_P2
2023/03/31 00:00:45;;;;;;;47.40;9.90;;;9.00;77.50;;;;;;5094082;28;20524;-75
2023/03/31 00:03:12;;;;;;;49.23;9.70;;;9.00;77.50;;;;;;5094781;27;20047;-75
2023/03/31 00:05:38;;;;;;;44.03;10.23;;;9.00;77.50;;;;;;5080047;28;20058;-75
2023/03/31 00:08:04;;;;;;;46.13;9.53;;;9.00;77.60;;;;;;5058890;28;20051;-75
2023/03/31 00:10:33;;;;;;;52.77;9.80;;;9.00;77.60;;;;;;5092805;28;20399;-75
2023/03/31 00:13:00;;;;;;;41.33;9.30;;;9.00;77.70;;;;;;5093762;27;20073;-75
2023/03/31 00:15:26;;;;;;;55.60;10.03;;;9.00;77.70;;;;;;5074563;28;20119;-75
2023/03/31 00:17:52;;;;;;;47.33;8.83;;;9.00;77.80;;;;;;5076555;28;20048;-75
2023/03/31 00:20:18;;;;;;;47.77;10.20;;;9.00;77.90;;;;;;5091841;28;20055;-75
2023/03/31 00:22:47;;;;;;;50.37;10.50;;;9.00;77.90;;;;;;5074166;28;20092;-75
2023/03/31 00:25:15;;;;;;;51.30;10.77;;;9.10;77.90;;;;;;5077078;28;20050;-75
2023/03/31 00:27:44;;;;;;;46.93;8.83;;;9.20;77.80;;;;;;5075256;28;20048;-75
2023/03/31 00:30:13;;;;;;;52.70;10.60;;;9.20;77.80;;;;;;5092403;28;20044;-75
2023/03/31 00:32:39;;;;;;;57.90;9.70;;;9.20;77.70;;;;;;5092185;27;20544;-75
2023/03/31 00:35:05;;;;;;;57.57;10.57;;;9.10;77.70;;;;;;5092106;28;20052;-75
2023/03/31 00:37:32;;;;;;;43.23;9.30;;;9.10;77.60;;;;;;5077603;28;20094;-75
2023/03/31 00:39:58;;;;;;;57.67;9.70;;;9.10;77.70;;;;;;5091504;28;20056;-75
2023/03/31 00:42:25;;;;;;;49.77;9.53;;;9.00;77.70;;;;;;5092751;27;20533;-75
2023/03/31 00:45:12;;;;;;;45.10;10.30;;;9.00;77.70;;;;;;5097491;28;20576;-75
2023/03/31 00:47:47;;;;;;;53.17;10.03;;;9.00;77.80;;;;;;5076088;28;20043;-75
2023/03/31 00:50:24;;;;;;;42.37;9.57;;;9.00;77.80;;;;;;5092994;28;20130;-75
2023/03/31 00:53:10;;;;;;;40.27;8.63;;;8.90;77.80;;;;;;5096277;27;20096;-75
2023/03/31 00:55:51;;;;;;;50.47;10.13;;;8.90;77.90;;;;;;5073430;28;20055;-75
2023/03/31 00:58:19;;;;;;;;;;;8.90;77.90;;;;;;5084545;27;20047;-75
2023/03/31 01:00:52;;;;;;;46.43;8.97;;;8.80;78.10;;;;;;5103898;28;19963;-75
2023/03/31 01:03:21;;;;;;;49.20;9.43;;;8.80;77.80;;;;;;5107501;27;20050;-75
2023/03/31 01:06:02;;;;;;;47.47;9.30;;;8.70;77.90;;;;;;5104343;28;20079;-74
2023/03/31 01:08:29;;;;;;;55.53;9.52;;;8.70;77.90;;;;;;5088302;27;20452;-75
2023/03/31 01:11:05;;;;;;;48.60;9.80;;;8.60;77.90;;;;;;5108202;28;20071;-75
2023/03/31 01:13:33;;;;;;;46.47;9.53;;;8.60;77.80;;;;;;5093678;27;20097;-75
2023/03/31 01:15:59;;;;;;;50.40;9.73;;;8.50;77.90;;;;;;5075842;28;20066;-75
2023/03/31 01:18:27;;;;;;;48.50;9.83;;;8.50;77.90;;;;;;5087452;27;20052;-75
2023/03/31 01:21:08;;;;;;;54.40;10.23;;;8.40;78.00;;;;;;5104980;28;20048;-75
2023/03/31 01:23:52;;;;;;;43.35;9.73;;;8.30;78.00;;;;;;5105207;27;20138;-75
2023/03/31 01:26:40;;;;;;;47.60;8.93;;;8.30;78.10;;;;;;5092783;28;20055;-75
2023/03/31 01:29:46;;;;;;;52.67;9.83;;;8.30;78.40;;;;;;5064426;28;20040;-74
2023/03/31 01:32:30;;;;;;;47.93;9.50;;;8.20;78.40;;;;;;5104279;27;20101;-74
2023/03/31 01:35:19;;;;;;;49.60;9.37;;;8.20;78.40;;;;;;5090586;28;20056;-75
2023/03/31 01:38:23;;;;;;;53.00;10.10;;;8.20;78.50;;;;;;5075939;28;20059;-75
2023/03/31 01:41:07;;;;;;;42.10;8.87;;;8.20;78.70;;;;;;5088200;28;20135;-75
2023/03/31 01:43:57;;;;;;;43.67;9.53;;;8.30;78.70;;;;;;5091553;28;20048;-75
2023/03/31 01:46:27;;;;;;;49.90;9.10;;;8.30;78.70;;;;;;5079083;28;20551;-75
2023/03/31 01:49:05;;;;;;;43.83;8.77;;;8.30;78.60;;;;;;5088080;28;20095;-75
2023/03/31 01:51:34;;;;;;;48.20;9.70;;;8.30;78.50;;;;;;5096184;28;20040;-75
2023/03/31 01:54:17;;;;;;;38.83;8.97;;;8.20;78.60;;;;;;5091631;28;20056;-75
2023/03/31 01:57:05;;;;;;;51.47;8.90;;;8.30;78.60;;;;;;5073624;28;20044;-75
2023/03/31 01:59:41;;;;;;;51.97;8.87;;;8.20;78.60;;;;;;5113635;27;20047;-75
2023/03/31 02:02:18;;;;;;;42.27;8.10;;;8.20;78.60;;;;;;5093030;27;20489;-74
2023/03/31 02:04:55;;;;;;;40.70;8.73;;;8.20;78.50;;;;;;5120076;27;20151;-75
2023/03/31 02:07:27;;;;;;;43.77;8.40;;;8.20;78.60;;;;;;5092542;27;20377;-75
2023/03/31 02:09:59;;;;;;;45.37;8.53;;;8.20;78.60;;;;;;5114612;27;20078;-75
2023/03/31 02:12:29;;;;;;;30.87;7.10;;;8.10;78.60;;;;;;5113461;27;20116;-75
2023/03/31 02:14:57;;;;;;;38.80;9.07;;;8.20;78.60;;;;;;5112796;27;20058;-75
2023/03/31 02:17:31;;;;;;;40.70;8.40;;;8.20;78.60;;;;;;5096516;27;20130;-75
2023/03/31 02:20:05;;;;;;;42.50;8.43;;;8.20;78.70;;;;;;5110009;27;20080;-75
2023/03/31 02:22:34;;;;;;;40.70;8.33;;;8.20;78.70;;;;;;5110437;27;20048;-74
2023/03/31 02:25:02;;;;;;;42.67;7.90;;;8.20;78.80;;;;;;5114843;27;20043;-75
2023/03/31 02:27:32;;;;;;;37.33;8.00;;;8.20;78.70;;;;;;5094513;27;20040;-75
2023/03/31 02:29:58;;;;;;;42.47;7.57;;;8.20;78.70;;;;;;5111700;27;20051;-75
2023/03/31 02:32:30;;;;;;;45.67;8.43;;;8.20;78.70;;;;;;5113982;27;20043;-75
2023/03/31 02:34:55;;;;;;;42.53;8.30;;;8.20;78.60;;;;;;5112282;28;20100;-75
2023/03/31 02:37:21;;;;;;;47.00;8.60;;;8.20;78.70;;;;;;5094499;28;20495;-75
2023/03/31 02:39:51;;;;;;;40.27;8.80;;;8.30;78.70;;;;;;5110968;28;20090;-75
2023/03/31 02:42:18;;;;;;;44.60;7.90;;;8.30;78.70;;;;;;5091851;28;20425;-75
2023/03/31 02:44:44;;;;;;;37.27;7.57;;;8.30;78.80;;;;;;5093718;28;20244;-75
2023/03/31 02:47:13;;;;;;;40.83;8.47;;;8.30;78.80;;;;;;5093578;28;20054;-75
2023/03/31 02:49:42;;;;;;;36.07;7.63;;;8.30;78.90;;;;;;5092044;28;20054;-75
2023/03/31 02:52:42;;;;;;;42.30;8.10;;;8.30;78.90;;;;;;5109431;27;20577;-75
2023/03/31 02:55:27;;;;;;;44.37;8.80;;;8.40;78.90;;;;;;5091587;28;20047;-75
2023/03/31 02:58:17;;;;;;;34.93;7.10;;;8.40;78.90;;;;;;5103282;27;20036;-75
2023/03/31 03:00:51;;;;;;;51.27;8.43;;;8.50;78.90;;;;;;5107821;28;20505;-75
2023/03/31 03:03:43;;;;;;;30.33;7.23;;;8.50;78.80;;;;;;5126180;27;20047;-75
2023/03/31 03:06:17;;;;;;;32.90;7.30;;;8.50;78.80;;;;;;5116994;28;20130;-75
2023/03/31 03:09:07;;;;;;;33.90;7.23;;;8.50;78.70;;;;;;5120732;27;20055;-75
2023/03/31 03:11:44;;;;;;;37.83;7.13;;;8.50;78.70;;;;;;5122684;28;20050;-75
2023/03/31 03:14:20;;;;;;;34.40;6.77;;;8.40;78.60;;;;;;5113555;27;20052;-75
2023/03/31 03:17:04;;;;;;;35.37;7.37;;;8.50;78.70;;;;;;5094161;28;20047;-75
2023/03/31 03:19:30;;;;;;;33.20;6.77;;;8.40;78.60;;;;;;5089513;28;20056;-75
2023/03/31 03:21:57;;;;;;;34.23;7.53;;;8.40;78.60;;;;;;5107841;28;20069;-75
2023/03/31 03:24:22;;;;;;;31.97;6.77;;;8.40;78.60;;;;;;5103938;28;20043;-75
2023/03/31 03:26:48;;;;;;;36.73;7.30;;;8.40;78.60;;;;;;5089740;28;20055;-75
2023/03/31 03:29:14;;;;;;;33.40;7.17;;;8.40;78.60;;;;;;5104604;27;20093;-75
2023/03/31 03:31:40;;;;;;;33.67;7.43;;;8.40;78.60;;;;;;5105451;28;20052;-75
2023/03/31 03:34:08;;;;;;;26.93;6.53;;;8.40;78.60;;;;;;5094263;27;20055;-75
2023/03/31 03:36:36;;;;;;;32.47;7.20;;;8.40;78.60;;;;;;5077224;28;21116;-75
2023/03/31 03:39:02;;;;;;;33.63;7.13;;;8.40;78.70;;;;;;5087843;28;20123;-75
2023/03/31 03:41:29;;;;;;;35.80;7.20;;;8.40;78.70;;;;;;5089905;28;20056;-75
2023/03/31 03:43:54;;;;;;;27.20;7.03;;;8.40;78.60;;;;;;5089853;28;20130;-75
2023/03/31 03:46:20;;;;;;;33.97;7.30;;;8.40;78.70;;;;;;5080504;28;20119;-75
2023/03/31 03:48:46;;;;;;;31.13;7.07;;;8.40;78.70;;;;;;5085663;28;20091;-75
2023/03/31 03:51:11;;;;;;;30.97;6.33;;;8.50;78.70;;;;;;5096136;28;20042;-75
2023/03/31 03:53:37;;;;;;;33.87;7.03;;;8.50;78.70;;;;;;5092463;27;20056;-75
2023/03/31 03:56:03;;;;;;;30.40;6.20;;;8.50;78.70;;;;;;5092159;28;20054;-75
2023/03/31 03:58:28;;;;;;;29.57;6.87;;;8.50;78.70;;;;;;5076055;28;20074;-75
2023/03/31 04:00:55;;;;;;;28.87;6.33;;;8.50;78.80;;;;;;5090974;28;20481;-75
2023/03/31 04:03:21;;;;;;;29.77;6.53;;;8.60;78.80;;;;;;5090112;28;20044;-75
2023/03/31 04:05:48;;;;;;;28.43;6.10;;;8.60;78.80;;;;;;5092241;28;20054;-75
2023/03/31 04:08:14;;;;;;;26.93;5.53;;;8.60;78.80;;;;;;5085791;28;20709;-75
2023/03/31 04:10:48;;;;;;;32.03;6.47;;;8.60;78.70;;;;;;5090143;28;20047;-75
2023/03/31 04:13:15;;;;;;;26.37;6.03;;;8.60;78.70;;;;;;5091755;28;20051;-75
2023/03/31 04:15:42;;;;;;;31.63;6.23;;;8.60;78.80;;;;;;5091598;28;20071;-75
2023/03/31 04:18:09;;;;;;;27.77;7.50;;;8.70;78.90;;;;;;5057422;28;20105;-75
2023/03/31 04:20:38;;;;;;;26.30;8.03;;;8.70;79.10;;;;;;5092454;28;20123;-75
2023/03/31 04:23:08;;;;;;;29.10;8.80;;;8.70;79.30;;;;;;5093033;27;20040;-74
2023/03/31 04:25:37;;;;;;;42.57;14.03;;;8.70;79.60;;;;;;5100076;28;20059;-74
2023/03/31 04:28:05;;;;;;;28.77;8.83;;;8.70;79.70;;;;;;5073680;28;20079;-75
2023/03/31 04:30:38;;;;;;;28.03;8.80;;;8.60;80.00;;;;;;5088418;28;20052;-75
2023/03/31 04:33:05;;;;;;;28.77;8.60;;;8.60;80.00;;;;;;5107671;27;20073;-75
2023/03/31 04:35:51;;;;;;;29.63;9.47;;;8.60;80.30;;;;;;5092301;28;20060;-75
2023/03/31 04:38:19;;;;;;;34.17;9.17;;;8.60;80.30;;;;;;5074425;28;20303;-75
2023/03/31 04:40:49;;;;;;;34.50;10.07;;;8.60;80.50;;;;;;5091512;28;20140;-75
2023/03/31 04:43:16;;;;;;;24.90;8.00;;;8.60;80.60;;;;;;5072398;28;20040;-74
2023/03/31 04:45:42;;;;;;;31.10;10.33;;;8.60;80.90;;;;;;5096009;28;20078;-74
2023/03/31 04:48:08;;;;;;;32.67;10.40;;;8.70;80.80;;;;;;5080962;27;20047;-75
2023/03/31 04:50:34;;;;;;;31.30;11.03;;;8.70;80.90;;;;;;5093801;28;20044;-75
2023/03/31 04:53:01;;;;;;;27.77;11.17;;;8.70;80.80;;;;;;5098302;28;20067;-75
2023/03/31 04:55:27;;;;;;;30.53;11.63;;;8.70;80.90;;;;;;5098721;28;20054;-75
2023/03/31 04:57:52;;;;;;;25.67;11.50;;;8.80;80.90;;;;;;5066493;28;20405;-75
2023/03/31 05:00:19;;;;;;;29.80;11.60;;;8.70;80.90;;;;;;5101883;28;20048;-75
2023/03/31 05:02:44;;;;;;;31.23;11.77;;;8.70;81.00;;;;;;5100522;28;20504;-75
2023/03/31 05:05:11;;;;;;;30.57;12.27;;;8.70;81.00;;;;;;5102664;28;20062;-75
2023/03/31 05:07:37;;;;;;;30.77;12.10;;;8.70;80.90;;;;;;5086655;27;20155;-75
2023/03/31 05:10:03;;;;;;;29.10;11.90;;;8.70;81.10;;;;;;5091309;28;20047;-75
2023/03/31 05:12:32;;;;;;;32.93;12.43;;;8.70;81.10;;;;;;5089936;27;20044;-74
2023/03/31 05:14:58;;;;;;;37.13;13.20;;;8.70;81.30;;;;;;5091958;28;20051;-75
2023/03/31 05:17:24;;;;;;;35.57;12.57;;;8.70;81.30;;;;;;5084608;28;20048;-74
2023/03/31 05:19:49;;;;;;;32.53;12.80;;;8.70;81.20;;;;;;5096808;28;20160;-75
2023/03/31 05:22:19;;;;;;;31.97;12.83;;;8.70;81.30;;;;;;5099858;27;20079;-75
2023/03/31 05:24:45;;;;;;;35.00;14.10;;;8.80;81.30;;;;;;5102139;28;20077;-75
2023/03/31 05:27:12;;;;;;;29.27;12.97;;;8.80;81.40;;;;;;5090817;28;20071;-75
2023/03/31 05:29:37;;;;;;;29.57;13.30;;;8.80;81.40;;;;;;5077167;28;20776;-75
2023/03/31 05:32:03;;;;;;;34.07;13.70;;;8.90;81.40;;;;;;5092090;28;20086;-74
2023/03/31 05:34:29;;;;;;;32.27;14.40;;;8.90;81.30;;;;;;5089656;28;20051;-75
2023/03/31 05:36:55;;;;;;;29.70;13.90;;;8.90;81.30;;;;;;5073842;28;20088;-75
2023/03/31 05:39:21;;;;;;;34.33;13.57;;;8.90;81.20;;;;;;5088056;28;20066;-75
2023/03/31 05:41:47;;;;;;;30.27;12.80;;;9.00;81.20;;;;;;5089634;28;20047;-75
2023/03/31 05:44:12;;;;;;;28.40;13.20;;;9.00;81.20;;;;;;5091217;28;20070;-75
2023/03/31 05:46:38;;;;;;;31.23;13.40;;;9.00;81.20;;;;;;5075295;28;20070;-75
2023/03/31 05:49:05;;;;;;;27.37;12.90;;;9.00;81.10;;;;;;5087940;28;20048;-75
2023/03/31 05:51:30;;;;;;;33.97;13.80;;;9.00;81.20;;;;;;5097466;28;20051;-75
2023/03/31 05:53:56;;;;;;;35.77;13.30;;;9.00;81.20;;;;;;5097336;27;20395;-75
2023/03/31 05:56:22;;;;;;;31.57;12.00;;;9.00;81.10;;;;;;5077489;28;20047;-74
2023/03/31 05:58:48;;;;;;;29.70;12.33;;;9.00;81.20;;;;;;5090690;27;20067;-75
2023/03/31 06:01:19;;;;;;;30.90;12.57;;;9.00;81.20;;;;;;5089126;28;20421;-75
2023/03/31 06:03:45;;;;;;;28.10;11.60;;;9.00;81.20;;;;;;5091077;28;20062;-75
2023/03/31 06:06:15;;;;;;;24.90;11.67;;;9.00;81.20;;;;;;5094698;28;20122;-75
2023/03/31 06:08:42;;;;;;;25.23;11.93;;;9.00;81.30;;;;;;5081611;28;20100;-75
2023/03/31 06:11:11;;;;;;;32.73;11.97;;;9.00;81.30;;;;;;5089422;28;20121;-74
2023/03/31 06:13:38;;;;;;;28.97;12.40;;;9.00;81.20;;;;;;5088459;28;20052;-75
2023/03/31 06:16:04;;;;;;;26.27;11.13;;;9.00;81.30;;;;;;5089872;28;20046;-75
2023/03/31 06:18:32;;;;;;;24.53;9.20;;;9.00;81.30;;;;;;5075179;28;20054;-75
2023/03/31 06:20:58;;;;;;;26.03;9.57;;;9.00;81.10;;;;;;5070556;28;20055;-75
2023/03/31 06:23:25;;;;;;;19.77;8.60;;;9.00;81.10;;;;;;5087221;28;20077;-75
2023/03/31 06:25:51;;;;;;;21.33;8.70;;;9.00;81.10;;;;;;5097936;28;20432;-75
2023/03/31 06:28:17;;;;;;;24.23;9.23;;;9.00;81.10;;;;;;5072488;28;20043;-75
2023/03/31 06:30:43;;;;;;;24.53;8.73;;;9.00;81.10;;;;;;5087671;28;20063;-75
2023/03/31 06:33:09;;;;;;;20.57;8.23;;;9.00;81.10;;;;;;5101155;28;20039;-75
2023/03/31 06:35:39;;;;;;;23.77;9.03;;;9.00;81.10;;;;;;5098733;28;20118;-75
2023/03/31 06:38:05;;;;;;;26.03;9.73;;;9.00;81.10;;;;;;5076840;28;20044;-75
2023/03/31 06:40:31;;;;;;;28.57;9.10;;;9.00;81.10;;;;;;5099063;28;20082;-75
2023/03/31 06:42:56;;;;;;;19.47;9.40;;;9.00;81.20;;;;;;5094037;28;20528;-75
2023/03/31 06:45:22;;;;;;;27.83;9.60;;;9.00;81.20;;;;;;5097109;28;20036;-75
2023/03/31 06:47:48;;;;;;;19.00;8.47;;;9.00;81.30;;;;;;5082817;28;20084;-75
2023/03/31 06:50:13;;;;;;;25.43;9.17;;;9.00;81.20;;;;;;5098342;28;20390;-75
2023/03/31 06:52:42;;;;;;;25.53;9.77;;;9.00;81.30;;;;;;5100562;27;20358;-75
2023/03/31 06:55:08;;;;;;;26.63;9.83;;;9.00;81.40;;;;;;5106255;28;20031;-75
2023/03/31 06:57:34;;;;;;;20.00;9.13;;;9.00;81.40;;;;;;5089339;27;20094;-75
2023/03/31 07:00:00;;;;;;;22.63;9.50;;;9.00;81.50;;;;;;5105278;28;20048;-75
2023/03/31 07:02:25;;;;;;;20.40;9.23;;;9.00;81.40;;;;;;5104629;28;20059;-75
2023/03/31 07:04:51;;;;;;;22.93;9.20;;;9.00;81.40;;;;;;5102890;28;20062;-75
2023/03/31 07:07:17;;;;;;;16.13;8.03;;;9.00;81.30;;;;;;5084036;28;20061;-74
2023/03/31 07:09:43;;;;;;;20.80;8.23;;;9.00;81.40;;;;;;5096330;28;20047;-75
2023/03/31 07:12:09;;;;;;;17.17;8.07;;;9.00;81.30;;;;;;5094282;27;20148;-75
2023/03/31 07:14:35;;;;;;;17.40;7.37;;;9.00;81.20;;;;;;5100265;28;20560;-75
2023/03/31 07:17:01;;;;;;;15.57;7.10;;;9.00;81.20;;;;;;5088135;28;20032;-75
2023/03/31 07:19:27;;;;;;;19.67;6.53;;;9.00;81.10;;;;;;5084067;28;20393;-75
2023/03/31 07:21:53;;;;;;;14.10;7.10;;;9.00;81.10;;;;;;5087000;28;20075;-75
2023/03/31 07:24:19;;;;;;;16.63;7.10;;;9.00;81.20;;;;;;5083980;27;20370;-75
2023/03/31 07:26:45;;;;;;;19.33;7.40;;;9.00;81.10;;;;;;5066974;28;20083;-75
2023/03/31 07:29:11;;;;;;;16.17;7.70;;;9.00;81.20;;;;;;5078804;28;20565;-75
2023/03/31 07:31:36;;;;;;;19.00;8.27;;;9.00;81.30;;;;;;5084985;28;20240;-75
2023/03/31 07:34:03;;;;;;;19.63;8.60;;;9.00;81.40;;;;;;5088803;27;20067;-75
2023/03/31 07:36:30;;;;;;;22.87;8.87;;;9.00;81.40;;;;;;5079424;28;20317;-75
2023/03/31 07:38:56;;;;;;;19.17;8.73;;;9.00;81.50;;;;;;5086442;28;20048;-75
2023/03/31 07:41:22;;;;;;;19.53;9.07;;;9.00;81.50;;;;;;5078961;28;20056;-75
2023/03/31 07:43:49;;;;;;;16.93;8.80;;;9.00;81.50;;;;;;5080101;28;20167;-75
2023/03/31 07:46:19;;;;;;;22.07;9.53;;;9.00;81.50;;;;;;5077620;28;20814;-75
2023/03/31 07:48:46;;;;;;;20.40;8.87;;;9.00;81.60;;;;;;5077977;28;20123;-75
2023/03/31 07:51:14;;;;;;;17.73;8.73;;;9.00;81.60;;;;;;5066426;28;20211;-75
2023/03/31 07:53:39;;;;;;;19.83;9.00;;;9.00;81.60;;;;;;5078932;28;20060;-75
2023/03/31 07:56:05;;;;;;;16.70;8.63;;;9.00;81.60;;;;;;5074892;28;20056;-75
2023/03/31 07:58:31;;;;;;;17.13;8.37;;;9.00;81.60;;;;;;5078521;28;20886;-75
2023/03/31 08:00:57;;;;;;;20.17;8.27;;;9.10;81.60;;;;;;5078703;28;20056;-76
2023/03/31 08:03:22;;;;;;;19.13;8.60;;;9.10;81.70;;;;;;5078114;27;20077;-75
2023/03/31 08:05:51;;;;;;;22.33;9.03;;;9.10;81.60;;;;;;5085401;28;20193;-75
2023/03/31 08:08:17;;;;;;;18.90;9.43;;;9.00;81.60;;;;;;5044978;28;20105;-75
2023/03/31 08:10:42;;;;;;;16.87;8.67;;;9.10;81.60;;;;;;5093120;28;20536;-75
2023/03/31 08:13:10;;;;;;;17.43;8.13;;;9.10;81.70;;;;;;5087190;27;20051;-75
2023/03/31 08:15:35;;;;;;;15.30;7.93;;;9.10;81.60;;;;;;5098503;27;20051;-75
2023/03/31 08:18:03;;;;;;;16.53;8.43;;;9.10;81.60;;;;;;5085861;27;20763;-75
2023/03/31 08:20:28;;;;;;;16.77;7.53;;;9.10;81.60;;;;;;5101925;27;20498;-75
2023/03/31 08:22:54;;;;;;;16.73;7.27;;;9.10;81.60;;;;;;5098513;27;20063;-75
2023/03/31 08:25:20;;;;;;;16.97;7.50;;;9.20;81.60;;;;;;5100839;27;20035;-75
2023/03/31 08:27:49;;;;;;;17.77;7.17;;;9.10;81.60;;;;;;5082525;28;20056;-75
2023/03/31 08:30:17;;;;;;;17.77;7.30;;;9.20;81.70;;;;;;5101590;27;20101;-75
2023/03/31 08:32:43;;;;;;;14.83;7.00;;;9.20;81.70;;;;;;5102727;27;20413;-75
2023/03/31 08:35:09;;;;;;;15.77;7.10;;;9.20;81.70;;;;;;5097671;27;20035;-75
2023/03/31 08:37:36;;;;;;;16.87;6.93;;;9.20;81.70;;;;;;5090294;27;20050;-75
2023/03/31 08:40:04;;;;;;;14.67;6.83;;;9.20;81.80;;;;;;5103015;27;20815;-75
2023/03/31 08:42:40;;;;;;;17.37;7.37;;;9.20;81.90;;;;;;5100794;27;20051;-75
2023/03/31 08:45:20;;;;;;;14.53;7.80;;;9.20;81.80;;;;;;5089190;28;20122;-75
2023/03/31 08:47:50;;;;;;;19.50;7.87;;;9.20;81.90;;;;;;5084368;27;20126;-75
2023/03/31 08:50:20;;;;;;;16.73;6.77;;;9.20;82.00;;;;;;5082768;27;20047;-75
2023/03/31 08:53:12;;;;;;;20.53;6.93;;;9.20;81.90;;;;;;5104059;27;20111;-75
2023/03/31 08:55:54;;;;;;;12.20;6.80;;;9.20;81.90;;;;;;5086642;28;20104;-75
2023/03/31 08:58:19;;;;;;;;;;;9.20;81.90;;;;;;5075051;27;20086;-75
2023/03/31 09:00:59;;;;;;;18.87;7.83;;;9.20;82.00;;;;;;5107752;27;20254;-75
2023/03/31 09:03:27;;;;;;;15.17;6.80;;;9.40;82.00;;;;;;5085212;27;20047;-75
2023/03/31 09:06:19;;;;;;;16.03;6.30;;;9.30;82.00;;;;;;5084784;27;20848;-75
2023/03/31 09:08:45;;;;;;;14.93;6.73;;;9.30;82.00;;;;;;5100230;27;20089;-75
2023/03/31 09:11:19;;;;;;;19.80;7.03;;;9.40;82.00;;;;;;5097540;27;20075;-75
2023/03/31 09:14:15;;;;;;;20.50;7.10;;;9.40;82.00;;;;;;5093784;27;20063;-75
2023/03/31 09:17:12;;;;;;;16.97;6.37;;;9.40;82.00;;;;;;5090696;27;20058;-75
2023/03/31 09:19:43;;;;;;;15.30;6.33;;;9.40;81.80;;;;;;5103640;27;20081;-75
2023/03/31 09:22:18;;;;;;;15.15;5.80;;;9.50;81.60;;;;;;5108085;27;20103;-75
2023/03/31 09:24:54;;;;;;;12.97;6.07;;;9.50;81.80;;;;;;5108787;27;20058;-75
2023/03/31 09:27:23;;;;;;;18.10;6.43;;;9.50;81.70;;;;;;5081676;27;20116;-75
2023/03/31 09:29:53;;;;;;;18.43;7.80;;;9.50;81.60;;;;;;5096772;28;20058;-75
2023/03/31 09:32:25;;;;;;;18.53;7.13;;;9.50;81.80;;;;;;5105391;27;20100;-75
2023/03/31 09:35:20;;;;;;;15.83;6.43;;;9.60;81.70;;;;;;5100591;27;20574;-75
2023/03/31 09:37:47;;;;;;;28.30;14.77;;;9.60;82.00;;;;;;5082167;27;20060;-75
2023/03/31 09:40:17;;;;;;;16.73;8.23;;;9.70;81.60;;;;;;5097271;28;20058;-75
2023/03/31 09:42:43;;;;;;;17.10;8.20;;;9.70;81.70;;;;;;5082340;28;20469;-75
2023/03/31 09:45:17;;;;;;;14.50;8.43;;;9.80;81.70;;;;;;5104577;27;20055;-75
2023/03/31 09:47:48;;;;;;;20.17;8.97;;;9.90;81.80;;;;;;5092477;27;20051;-75
2023/03/31 09:50:15;;;;;;;18.07;8.23;;;10.00;81.90;;;;;;5107564;27;20119;-75
2023/03/31 09:52:45;;;;;;;19.37;7.87;;;10.00;81.90;;;;;;5096047;27;20054;-75
2023/03/31 09:55:34;;;;;;;13.80;7.00;;;10.10;81.70;;;;;;5097952;27;20082;-75
2023/03/31 09:58:03;;;;;;;18.10;8.03;;;10.20;81.50;;;;;;5089610;27;20381;-75
2023/03/31 10:00:28;;;;;;;19.63;9.90;;;10.20;81.60;;;;;;5095997;28;20039;-75
2023/03/31 10:02:56;;;;;;;14.13;7.57;;;10.30;81.40;;;;;;5096404;27;20058;-75
2023/03/31 10:05:29;;;;;;;14.90;7.53;;;10.40;81.50;;;;;;5096839;27;20047;-75
2023/03/31 10:08:15;;;;;;;15.57;7.00;;;10.40;81.30;;;;;;5090589;27;20047;-75
2023/03/31 10:10:47;;;;;;;14.23;7.03;;;10.50;81.00;;;;;;5044320;28;20451;-75
2023/03/31 10:13:19;;;;;;;14.60;6.73;;;10.60;81.20;;;;;;5102770;27;20047;-75
2023/03/31 10:15:45;;;;;;;9.80;6.20;;;10.70;80.80;;;;;;5095479;28;20059;-75
2023/03/31 10:18:16;;;;;;;16.67;6.37;;;10.80;80.80;;;;;;5079831;27;20079;-75
2023/03/31 10:20:52;;;;;;;14.45;7.22;;;10.90;80.60;;;;;;5068080;28;20064;-75
2023/03/31 10:23:26;;;;;;;13.03;5.80;;;10.90;80.60;;;;;;5107139;27;20126;-74
2023/03/31 10:25:52;;;;;;;15.00;5.30;;;10.90;80.40;;;;;;5098724;27;20058;-75
2023/03/31 10:28:20;;;;;;;10.13;4.60;;;10.90;80.30;;;;;;5070108;27;20393;-75
2023/03/31 10:30:52;;;;;;;9.13;4.37;;;10.80;80.10;;;;;;5080650;28;20060;-75
2023/03/31 10:33:24;;;;;;;13.13;4.17;;;10.80;80.40;;;;;;5098553;28;20050;-75
2023/03/31 10:36:06;;;;;;;7.23;3.77;;;10.70;80.60;;;;;;5083910;27;21724;-75
2023/03/31 10:38:41;;;;;;;9.98;4.00;;;10.60;80.60;;;;;;5070123;28;20128;-75
2023/03/31 10:41:08;;;;;;;7.93;3.70;;;10.50;80.70;;;;;;5099006;28;20129;-75
2023/03/31 10:43:40;;;;;;;9.23;4.33;;;10.40;80.60;;;;;;5085022;28;20056;-75
2023/03/31 10:46:06;;;;;;;8.90;4.07;;;10.40;80.90;;;;;;5091739;28;20052;-75
2023/03/31 10:48:38;;;;;;;7.50;4.23;;;10.50;81.10;;;;;;5058439;28;20047;-75
2023/03/31 10:51:10;;;;;;;11.03;5.13;;;10.50;81.20;;;;;;5106026;28;20065;-75
2023/03/31 10:53:43;;;;;;;13.00;5.63;;;10.60;80.90;;;;;;5095444;28;20505;-75
2023/03/31 10:56:42;;;;;;;11.70;6.30;;;10.60;81.10;;;;;;5057013;28;20044;-75
2023/03/31 10:59:11;;;;;;;13.17;5.77;;;10.70;81.20;;;;;;5077669;28;20052;-75
2023/03/31 11:01:48;;;;;;;12.33;6.00;;;10.70;81.10;;;;;;5080413;28;20117;-75
2023/03/31 11:04:23;;;;;;;15.17;5.60;;;10.70;80.70;;;;;;5097681;27;20052;-75
2023/03/31 11:06:52;;;;;;;11.13;5.80;;;10.70;80.70;;;;;;5083607;28;20499;-75
2023/03/31 11:09:23;;;;;;;12.63;5.60;;;10.70;80.70;;;;;;5104082;27;20054;-75
2023/03/31 11:12:10;;;;;;;13.33;5.73;;;10.80;80.70;;;;;;5113324;27;20062;-75
2023/03/31 11:14:54;;;;;;;14.80;6.20;;;10.90;80.80;;;;;;5108360;27;20138;-75
2023/03/31 11:17:40;;;;;;;10.47;6.30;;;10.90;80.70;;;;;;5075400;27;20905;-75
2023/03/31 11:20:25;;;;;;;12.30;6.50;;;11.10;80.90;;;;;;5090972;28;20056;-76
2023/03/31 11:23:17;;;;;;;10.57;5.30;;;11.30;80.50;;;;;;5088010;27;20502;-75
2023/03/31 11:25:56;;;;;;;10.82;5.50;;;11.50;80.50;;;;;;5091199;28;20529;-76
2023/03/31 11:29:04;;;;;;;16.43;5.37;;;11.70;80.50;;;;;;5081250;27;20528;-76
2023/03/31 11:31:59;;;;;;;13.47;4.97;;;11.90;79.60;;;;;;5081890;28;20121;-75
2023/03/31 11:34:46;;;;;;;12.60;4.60;;;11.90;79.50;;;;;;5090331;27;20052;-75
2023/03/31 11:37:30;;;;;;;10.73;4.47;;;11.90;79.20;;;;;;5083077;28;20386;-76
2023/03/31 11:40:03;;;;;;;12.38;4.90;;;12.00;79.30;;;;;;5086581;28;20458;-76
2023/03/31 11:42:37;;;;;;;12.35;4.68;;;12.10;79.20;;;;;;5085862;28;20101;-75
2023/03/31 11:45:17;;;;;;;12.63;4.00;;;12.20;79.30;;;;;;5088859;28;20047;-76
2023/03/31 11:47:45;;;;;;;13.10;4.35;;;12.30;78.70;;;;;;5073148;28;20054;-75
2023/03/31 11:50:25;;;;;;;8.25;3.90;;;12.30;78.60;;;;;;5087317;28;20052;-75
2023/03/31 11:53:00;;;;;;;10.75;3.85;;;12.30;78.00;;;;;;5068354;28;20055;-75
2023/03/31 11:55:28;;;;;;;13.38;4.40;;;12.30;77.30;;;;;;5070281;28;20066;-76
2023/03/31 11:58:15;;;;;;;10.80;3.95;;;12.40;78.50;;;;;;5069642;28;20048;-75
2023/03/31 12:00:46;;;;;;;11.77;4.00;;;12.50;78.60;;;;;;5085243;28;20048;-75
2023/03/31 12:03:42;;;;;;;8.43;3.20;;;12.50;77.50;;;;;;5086811;27;20568;-75
2023/03/31 12:06:18;;;;;;;9.80;3.33;;;12.50;76.00;;;;;;5061762;28;20059;-75
2023/03/31 12:08:50;;;;;;;12.40;3.63;;;12.50;77.30;;;;;;5082296;28;20441;-75
2023/03/31 12:11:28;;;;;;;7.80;2.33;;;12.50;77.50;;;;;;5087254;28;20132;-75
2023/03/31 12:14:00;;;;;;;10.65;3.38;;;12.30;76.00;;;;;;5067509;27;20060;-75
2023/03/31 12:16:38;;;;;;;8.82;2.80;;;12.10;76.50;;;;;;5074741;28;20497;-75
2023/03/31 12:19:13;;;;;;;5.05;2.30;;;12.00;76.60;;;;;;5084804;28;20523;-75
2023/03/31 12:21:46;;;;;;;9.90;3.20;;;11.90;77.20;;;;;;5049859;28;20064;-75
2023/03/31 12:24:13;;;;;;;8.18;3.05;;;11.90;77.70;;;;;;5071981;28;20397;-75
2023/03/31 12:26:50;;;;;;;11.00;3.47;;;11.80;77.40;;;;;;5073219;28;20047;-76
2023/03/31 12:29:42;;;;;;;12.43;4.07;;;11.70;77.90;;;;;;5082354;27;20060;-76
2023/03/31 12:32:19;;;;;;;11.33;3.63;;;11.70;78.30;;;;;;5089475;27;20056;-75
2023/03/31 12:34:57;;;;;;;14.10;4.30;;;11.70;78.50;;;;;;5090711;28;20442;-76
2023/03/31 12:37:25;;;;;;;11.17;3.97;;;11.50;78.70;;;;;;5072250;28;20040;-75
2023/03/31 12:40:08;;;;;;;11.02;4.63;;;11.40;78.80;;;;;;5087313;28;20694;-75
2023/03/31 12:42:51;;;;;;;13.03;4.13;;;11.30;78.90;;;;;;5069967;28;20128;-76
2023/03/31 12:45:26;;;;;;;10.27;4.60;;;11.20;79.00;;;;;;5090709;28;20091;-76
2023/03/31 12:48:12;;;;;;;14.10;4.00;;;11.10;79.10;;;;;;5072935;27;20124;-76
2023/03/31 12:51:01;;;;;;;10.77;3.50;;;11.10;79.20;;;;;;5087329;28;20096;-75
2023/03/31 12:53:59;;;;;;;8.13;3.53;;;11.00;79.00;;;;;;5055717;28;20059;-76
2023/03/31 12:56:25;;;;;;;22.83;9.47;;;10.90;79.50;;;;;;5075710;28;20556;-75
2023/03/31 12:58:50;;;;;;;18.60;7.70;;;10.90;79.50;;;;;;5051410;28;20052;-76
2023/03/31 13:01:20;;;;;;;33.10;15.67;;;11.00;79.80;;;;;;5084111;28;20188;-76
2023/03/31 13:04:16;;;;;;;37.40;18.00;;;11.10;80.10;;;;;;5088942;27;20512;-76
2023/03/31 13:06:42;;;;;;;23.67;10.00;;;11.40;80.40;;;;;;5051477;28;20608;-76